Aktuální stav
Light Rain
Showers



Tlak
1034.92 (hPa) - 30.56 (inHG)
Viďitelnost

3.7 (km) - 2.3 (míle)
   Teplota
1  °C
34°F
1  °C
Rosný bod
100  %
 Vlhkost
   Rychlost větru
3  km/h
2  kts
2  mph
0.9  m/s
   Směr větru
Calm
Sever
   Leťiště
LKLN
Location Plzen Line 36 km (22.37 mi)
Metar :LKLN 191542Z AUTO VRB02KT 3700 -RA FEW010 SCT019 OVC027 01/01 Q1035
Sun 19th January 17:42 pm